Time;durP1;ratioP1;P1;durP2;ratioP2;P2;SDS_P1;SDS_P2;PMS_P1;PMS_P2;Temp;Humidity;BMP_temperature;BMP_pressure;BME280_temperature;BME280_humidity;BME280_pressure;Samples;Min_cycle;Max_cycle;Signal;HPM_P1;HPM_P2
2022/11/27 00:00:57;;;;;;;8.10;5.80;;;16.20;62.00;;;;;;5074770;28;20452;-82
2022/11/27 00:03:27;;;;;;;15.20;6.43;;;16.20;61.90;;;;;;5075939;28;20456;-85
2022/11/27 00:05:55;;;;;;;10.90;6.17;;;16.30;62.10;;;;;;5075029;28;20472;-85
2022/11/27 00:08:23;;;;;;;11.50;5.93;;;16.20;62.00;;;;;;5072549;28;20446;-84
2022/11/27 00:10:51;;;;;;;10.53;6.00;;;16.20;62.10;;;;;;5074790;28;20445;-84
2022/11/27 00:13:18;;;;;;;11.53;6.70;;;16.20;61.90;;;;;;5083814;28;20457;-84
2022/11/27 00:15:46;;;;;;;10.07;6.63;;;16.20;61.70;;;;;;5073277;28;20492;-85
2022/11/27 00:18:14;;;;;;;10.77;6.13;;;16.20;61.80;;;;;;5077745;28;20465;-85
2022/11/27 00:20:44;;;;;;;10.87;6.10;;;16.20;61.90;;;;;;5073382;28;20448;-87
2022/11/27 00:23:12;;;;;;;13.27;6.40;;;16.20;61.60;;;;;;5077080;28;20461;-84
2022/11/27 00:25:40;;;;;;;9.37;6.00;;;16.20;61.70;;;;;;5073991;28;20470;-85
2022/11/27 00:28:08;;;;;;;14.93;7.33;;;16.20;61.70;;;;;;5070857;28;20452;-85
2022/11/27 00:30:36;;;;;;;12.37;6.30;;;16.20;61.60;;;;;;5074515;28;20450;-84
2022/11/27 00:33:04;;;;;;;15.03;6.57;;;16.20;61.60;;;;;;5075186;28;20458;-84
2022/11/27 00:35:32;;;;;;;14.57;6.10;;;16.20;61.80;;;;;;5074314;28;20464;-84
2022/11/27 00:38:02;;;;;;;9.30;6.20;;;16.20;61.70;;;;;;5079217;28;20458;-85
2022/11/27 00:40:30;;;;;;;14.20;5.90;;;16.20;61.80;;;;;;5081668;28;20473;-83
2022/11/27 00:43:00;;;;;;;10.70;6.30;;;16.20;61.70;;;;;;5073272;28;20455;-85
2022/11/27 00:45:28;;;;;;;14.23;6.60;;;16.10;61.60;;;;;;5076564;28;20449;-84
2022/11/27 00:47:56;;;;;;;9.30;5.90;;;16.20;61.90;;;;;;5082663;28;20457;-84
2022/11/27 00:50:24;;;;;;;11.40;6.40;;;16.10;61.70;;;;;;5073718;28;20453;-83
2022/11/27 00:52:52;;;;;;;10.70;6.40;;;16.10;61.70;;;;;;5080994;28;20455;-83
2022/11/27 00:55:21;;;;;;;8.40;5.50;;;16.10;61.60;;;;;;5084423;28;20464;-84
2022/11/27 00:57:49;;;;;;;15.73;6.17;;;16.10;61.70;;;;;;5074054;28;20437;-84
2022/11/27 01:00:18;;;;;;;10.30;5.90;;;16.10;61.60;;;;;;5091933;28;20472;-85
2022/11/27 01:02:46;;;;;;;14.00;6.33;;;16.10;61.70;;;;;;5087884;28;20450;-83
2022/11/27 01:05:14;;;;;;;10.20;5.20;;;16.10;61.60;;;;;;5072781;28;20476;-85
2022/11/27 01:07:42;;;;;;;8.57;5.87;;;16.10;61.50;;;;;;5073929;28;20460;-85
2022/11/27 01:10:11;;;;;;;11.90;5.80;;;16.10;61.60;;;;;;5073615;28;20476;-84
2022/11/27 01:12:41;;;;;;;9.40;5.00;;;16.00;61.60;;;;;;5065177;28;20461;-85
2022/11/27 01:15:10;;;;;;;10.60;6.17;;;16.10;61.60;;;;;;5068518;28;20460;-85
2022/11/27 01:17:38;;;;;;;6.93;5.70;;;16.10;61.70;;;;;;5074613;28;20469;-85
2022/11/27 01:20:07;;;;;;;10.67;5.87;;;16.10;61.40;;;;;;5073391;28;20473;-85
2022/11/27 01:22:35;;;;;;;8.77;5.50;;;16.10;61.50;;;;;;5073131;28;20461;-83
2022/11/27 01:25:04;;;;;;;12.07;5.60;;;16.10;61.60;;;;;;5072938;28;20524;-83
2022/11/27 01:27:31;;;;;;;10.60;5.50;;;16.10;61.60;;;;;;5076301;28;20474;-82
2022/11/27 01:30:01;;;;;;;9.53;5.77;;;16.00;61.40;;;;;;5071981;28;20445;-84
2022/11/27 01:32:29;;;;;;;9.30;5.50;;;16.00;61.40;;;;;;5075504;28;20453;-83
2022/11/27 01:34:57;;;;;;;9.07;5.20;;;16.00;61.40;;;;;;5074071;28;20457;-84
2022/11/27 01:37:25;;;;;;;7.13;5.23;;;16.00;61.40;;;;;;5072579;28;20469;-83
2022/11/27 01:39:54;;;;;;;13.10;6.33;;;16.00;61.40;;;;;;5078833;28;20473;-85
2022/11/27 01:42:22;;;;;;;11.43;5.23;;;16.00;61.30;;;;;;5073191;28;20457;-85
2022/11/27 01:44:53;;;;;;;10.63;5.83;;;16.00;61.40;;;;;;5075604;28;20455;-83
2022/11/27 01:47:32;;;;;;;7.83;4.80;;;16.00;61.30;;;;;;5078212;28;20480;-84
2022/11/27 01:50:11;;;;;;;10.80;5.93;;;16.00;61.90;;;;;;5071833;28;20819;-82
2022/11/27 01:52:41;;;;;;;9.50;5.33;;;15.90;61.10;;;;;;5077749;28;20453;-82
2022/11/27 01:55:10;;;;;;;12.40;5.53;;;15.90;61.10;;;;;;5076533;28;20468;-83
2022/11/27 01:57:41;;;;;;;9.83;6.00;;;15.90;61.10;;;;;;5061962;28;20454;-82
2022/11/27 02:00:11;;;;;;;8.93;5.43;;;15.90;61.20;;;;;;5061022;28;20467;-85
2022/11/27 02:02:41;;;;;;;7.43;5.03;;;15.90;61.10;;;;;;5062521;28;20442;-85
2022/11/27 02:05:12;;;;;;;7.13;5.30;;;15.80;61.00;;;;;;5069356;28;20450;-86
2022/11/27 02:07:40;;;;;;;11.07;6.07;;;15.80;60.90;;;;;;5069208;28;20473;-85
2022/11/27 02:10:09;;;;;;;10.40;5.47;;;15.80;60.90;;;;;;5068941;28;20446;-85
2022/11/27 02:12:42;;;;;;;20.77;11.50;;;15.80;60.80;;;;;;5063322;28;20442;-85
2022/11/27 02:15:13;;;;;;;23.67;14.00;;;15.80;60.90;;;;;;5067226;28;20533;-84
2022/11/27 02:17:45;;;;;;;17.63;10.20;;;15.80;60.80;;;;;;5073236;28;20468;-86
2022/11/27 02:20:21;;;;;;;13.80;9.10;;;15.80;60.80;;;;;;5068414;28;20549;-86
2022/11/27 02:23:06;;;;;;;14.00;8.30;;;15.80;60.80;;;;;;5085147;28;20441;-85
2022/11/27 02:25:37;;;;;;;14.33;8.67;;;15.70;60.60;;;;;;5091074;28;20548;-85
2022/11/27 02:28:15;;;;;;;14.90;8.37;;;15.70;60.70;;;;;;5091476;28;20425;-83
2022/11/27 02:30:49;;;;;;;13.57;8.27;;;15.70;60.60;;;;;;5090879;28;20430;-86
2022/11/27 02:33:18;;;;;;;12.30;8.20;;;15.70;60.60;;;;;;5084309;28;20460;-85
2022/11/27 02:35:48;;;;;;;16.20;7.90;;;15.70;60.60;;;;;;5082472;28;20454;-87
2022/11/27 02:38:18;;;;;;;17.63;8.70;;;15.70;60.40;;;;;;5072346;28;20458;-86
2022/11/27 02:40:50;;;;;;;12.13;7.53;;;15.60;60.40;;;;;;5073553;28;20478;-84
2022/11/27 02:43:20;;;;;;;14.37;7.83;;;15.60;60.70;;;;;;5076430;28;20445;-84
2022/11/27 02:45:50;;;;;;;15.60;8.00;;;15.70;60.50;;;;;;5083724;28;20446;-84
2022/11/27 02:48:20;;;;;;;13.83;8.60;;;15.70;60.60;;;;;;5097574;28;20469;-84
2022/11/27 02:50:47;;;;;;;15.40;7.50;;;15.60;60.40;;;;;;5091953;28;20448;-85
2022/11/27 02:53:21;;;;;;;13.03;7.17;;;15.60;60.30;;;;;;5095104;28;20455;-85
2022/11/27 02:55:50;;;;;;;13.53;7.30;;;15.70;60.40;;;;;;5101782;28;20585;-84
2022/11/27 02:58:20;;;;;;;11.37;7.30;;;15.60;60.40;;;;;;5096702;28;20542;-85
2022/11/27 03:00:49;;;;;;;13.73;7.63;;;15.60;60.20;;;;;;5095147;28;20486;-85
2022/11/27 03:03:18;;;;;;;13.57;7.87;;;15.60;60.20;;;;;;5089714;28;20444;-84
2022/11/27 03:05:47;;;;;;;11.03;7.00;;;15.60;60.30;;;;;;5093173;28;20434;-81
2022/11/27 03:08:18;;;;;;;14.23;8.00;;;15.60;60.20;;;;;;5097775;28;20410;-82
2022/11/27 03:10:48;;;;;;;9.50;6.97;;;15.60;60.20;;;;;;5090008;28;20433;-82
2022/11/27 03:13:16;;;;;;;11.00;7.17;;;15.50;60.10;;;;;;5080572;28;20465;-83
2022/11/27 03:15:49;;;;;;;13.73;7.30;;;15.50;60.10;;;;;;5085943;28;20445;-82
2022/11/27 03:18:21;;;;;;;11.77;6.70;;;15.50;60.00;;;;;;5090005;28;20445;-83
2022/11/27 03:20:50;;;;;;;10.00;6.50;;;15.50;60.10;;;;;;5086750;28;20457;-82
2022/11/27 03:23:18;;;;;;;10.93;5.97;;;15.50;60.10;;;;;;5069175;28;20449;-83
2022/11/27 03:25:46;;;;;;;11.60;6.43;;;15.50;60.10;;;;;;5082554;28;20469;-84
2022/11/27 03:28:15;;;;;;;11.50;6.60;;;15.50;60.00;;;;;;5096055;28;20463;-85
2022/11/27 03:30:43;;;;;;;9.60;6.60;;;15.50;60.10;;;;;;5089216;28;20449;-84
2022/11/27 03:33:11;;;;;;;10.47;6.73;;;15.50;60.00;;;;;;5086873;28;20463;-84
2022/11/27 03:35:41;;;;;;;9.03;5.90;;;15.50;60.10;;;;;;5099658;28;20444;-85
2022/11/27 03:38:09;;;;;;;10.03;6.30;;;15.50;59.90;;;;;;5103734;28;20429;-85
2022/11/27 03:40:40;;;;;;;11.63;7.00;;;15.40;59.80;;;;;;5098279;28;20474;-84
2022/11/27 03:43:11;;;;;;;9.60;6.27;;;15.40;59.80;;;;;;5096117;28;20443;-83
2022/11/27 03:45:43;;;;;;;11.23;6.73;;;15.40;59.80;;;;;;5097010;28;20441;-82
2022/11/27 03:48:17;;;;;;;9.13;6.30;;;15.40;59.80;;;;;;5097493;28;20430;-81
2022/11/27 03:50:51;;;;;;;13.93;6.27;;;15.40;59.60;;;;;;5096220;28;20446;-83
2022/11/27 03:53:22;;;;;;;9.87;6.27;;;15.40;59.90;;;;;;5096957;28;20432;-83
2022/11/27 03:55:52;;;;;;;10.33;6.57;;;15.40;59.80;;;;;;5100378;28;20522;-83
2022/11/27 03:58:23;;;;;;;9.70;6.70;;;15.30;59.70;;;;;;5095605;28;20442;-82
2022/11/27 04:00:50;;;;;;;9.50;6.50;;;15.30;59.60;;;;;;5099663;28;20470;-84
2022/11/27 04:03:23;;;;;;;8.30;6.07;;;15.30;59.60;;;;;;5100331;28;20460;-84
2022/11/27 04:05:53;;;;;;;7.90;5.80;;;15.30;59.40;;;;;;5100280;28;20497;-82
2022/11/27 04:08:21;;;;;;;10.83;6.40;;;15.30;59.40;;;;;;5094757;28;20508;-82
2022/11/27 04:10:49;;;;;;;10.10;6.00;;;15.30;59.30;;;;;;5098710;28;20436;-82
2022/11/27 04:13:17;;;;;;;9.97;5.43;;;15.20;59.50;;;;;;5100565;28;20454;-81
2022/11/27 04:15:45;;;;;;;8.37;5.77;;;15.30;59.40;;;;;;5099137;28;20429;-83
2022/11/27 04:18:13;;;;;;;8.10;5.80;;;15.30;59.40;;;;;;5100708;28;20454;-83
2022/11/27 04:20:41;;;;;;;12.33;6.37;;;15.20;59.30;;;;;;5088721;28;20469;-82
2022/11/27 04:23:10;;;;;;;6.70;5.73;;;15.20;59.40;;;;;;5085135;28;20459;-83
2022/11/27 04:25:38;;;;;;;10.13;5.80;;;15.20;59.40;;;;;;5085164;28;20461;-83
2022/11/27 04:28:06;;;;;;;7.40;5.63;;;15.20;59.30;;;;;;5086995;28;20450;-83
2022/11/27 04:30:35;;;;;;;10.73;6.10;;;15.20;59.30;;;;;;5085241;28;20449;-82
2022/11/27 04:33:02;;;;;;;7.60;5.60;;;15.20;59.00;;;;;;5080869;28;20466;-84
2022/11/27 04:35:30;;;;;;;10.53;5.93;;;15.10;59.20;;;;;;5080751;28;20453;-83
2022/11/27 04:37:58;;;;;;;10.43;6.00;;;15.10;59.20;;;;;;5087323;28;20459;-83
2022/11/27 04:40:28;;;;;;;9.20;6.00;;;15.10;59.10;;;;;;5085915;28;20848;-83
2022/11/27 04:42:56;;;;;;;10.50;6.50;;;15.10;59.10;;;;;;5083791;28;20472;-83
2022/11/27 04:45:24;;;;;;;8.03;5.40;;;15.10;59.00;;;;;;5094654;28;20449;-84
2022/11/27 04:47:52;;;;;;;8.43;5.93;;;15.10;59.10;;;;;;5084591;28;20457;-83
2022/11/27 04:50:20;;;;;;;8.27;6.03;;;15.10;58.90;;;;;;5089933;28;20461;-84
2022/11/27 04:52:49;;;;;;;8.67;6.10;;;15.10;58.90;;;;;;5081475;28;20454;-83
2022/11/27 04:55:17;;;;;;;9.27;5.93;;;15.00;59.20;;;;;;5084831;28;20452;-85
2022/11/27 04:57:47;;;;;;;8.10;5.60;;;15.00;58.60;;;;;;5082479;28;20473;-83
2022/11/27 05:00:15;;;;;;;12.53;6.87;;;15.00;58.90;;;;;;5082908;28;20446;-84
2022/11/27 05:02:43;;;;;;;9.70;5.70;;;15.00;58.80;;;;;;5084910;28;20449;-83
2022/11/27 05:05:11;;;;;;;8.60;6.50;;;15.00;58.90;;;;;;5084288;28;20476;-85
2022/11/27 05:07:40;;;;;;;9.97;6.00;;;15.00;58.70;;;;;;5084868;28;20481;-82
2022/11/27 05:10:09;;;;;;;8.73;6.00;;;15.00;58.90;;;;;;5081922;28;20453;-82
2022/11/27 05:12:37;;;;;;;10.20;5.43;;;15.00;58.90;;;;;;5082757;28;20476;-83
2022/11/27 05:15:09;;;;;;;7.97;5.80;;;15.00;58.90;;;;;;5082346;28;20453;-84
2022/11/27 05:17:37;;;;;;;7.63;5.90;;;15.00;58.60;;;;;;5084645;28;20469;-82
2022/11/27 05:20:06;;;;;;;11.53;5.83;;;15.00;58.80;;;;;;5089216;28;20539;-84
2022/11/27 05:22:34;;;;;;;8.50;5.17;;;14.90;58.70;;;;;;5081126;28;20469;-84
2022/11/27 05:25:03;;;;;;;8.40;5.73;;;14.90;58.60;;;;;;5083104;28;20463;-83
2022/11/27 05:27:31;;;;;;;9.90;5.70;;;14.90;58.50;;;;;;5079153;28;20473;-82
2022/11/27 05:29:59;;;;;;;11.40;5.73;;;14.90;58.60;;;;;;5079224;28;20457;-82
2022/11/27 05:32:29;;;;;;;7.07;5.70;;;14.90;58.50;;;;;;5095546;28;20589;-82
2022/11/27 05:34:57;;;;;;;10.10;6.37;;;14.90;58.80;;;;;;5085377;28;20456;-82
2022/11/27 05:37:25;;;;;;;9.53;6.23;;;14.90;58.70;;;;;;5081751;28;20472;-84
2022/11/27 05:39:53;;;;;;;8.53;5.87;;;14.90;58.60;;;;;;5081248;28;20449;-82
2022/11/27 05:42:21;;;;;;;8.60;5.80;;;14.90;58.60;;;;;;5085605;28;20487;-83
2022/11/27 05:44:49;;;;;;;6.67;5.23;;;14.90;58.60;;;;;;5080587;28;20457;-82
2022/11/27 05:47:25;;;;;;;7.43;5.47;;;14.90;58.60;;;;;;5081066;28;20507;-83
2022/11/27 05:49:54;;;;;;;8.93;5.77;;;14.90;58.70;;;;;;5078020;28;20450;-82
2022/11/27 05:52:22;;;;;;;7.90;5.43;;;14.90;58.60;;;;;;5076450;28;20456;-83
2022/11/27 05:54:51;;;;;;;9.37;5.60;;;14.80;58.40;;;;;;5078132;28;20487;-82
2022/11/27 05:57:19;;;;;;;6.57;5.10;;;14.80;58.40;;;;;;5078918;28;20474;-83
2022/11/27 05:59:47;;;;;;;7.87;5.47;;;14.80;58.50;;;;;;5084099;28;20465;-83
2022/11/27 06:02:15;;;;;;;13.13;5.77;;;14.80;58.40;;;;;;5079246;28;20464;-82
2022/11/27 06:04:51;;;;;;;7.80;5.67;;;14.80;58.30;;;;;;5077060;28;20453;-82
2022/11/27 06:07:21;;;;;;;8.23;5.40;;;14.80;58.30;;;;;;5074371;28;20488;-83
2022/11/27 06:09:49;;;;;;;5.57;4.97;;;14.80;58.20;;;;;;5075330;28;20469;-81
2022/11/27 06:12:18;;;;;;;7.80;4.83;;;14.80;58.60;;;;;;5076159;28;20445;-83
2022/11/27 06:14:46;;;;;;;7.50;5.63;;;14.80;58.40;;;;;;5079528;28;20453;-81
2022/11/27 06:17:15;;;;;;;7.20;5.53;;;14.80;58.50;;;;;;5080865;28;20487;-82
2022/11/27 06:19:43;;;;;;;7.67;4.87;;;14.80;58.30;;;;;;5084679;28;20457;-81
2022/11/27 06:22:11;;;;;;;10.37;5.47;;;14.80;58.30;;;;;;5082844;28;21000;-82
2022/11/27 06:24:40;;;;;;;9.97;5.57;;;14.80;58.20;;;;;;5081828;28;20465;-82
2022/11/27 06:27:09;;;;;;;7.13;5.00;;;14.80;58.20;;;;;;5083715;28;20479;-83
2022/11/27 06:29:37;;;;;;;7.23;5.10;;;14.70;58.20;;;;;;5089228;28;20455;-81
2022/11/27 06:32:06;;;;;;;8.00;5.60;;;14.70;58.20;;;;;;5085410;28;20441;-82
2022/11/27 06:34:34;;;;;;;6.63;5.27;;;14.70;58.40;;;;;;5082956;28;20453;-82
2022/11/27 06:37:02;;;;;;;7.80;5.60;;;14.70;58.40;;;;;;5083880;28;20469;-82
2022/11/27 06:39:32;;;;;;;7.83;5.10;;;14.70;58.40;;;;;;5082023;28;20456;-82
2022/11/27 06:42:01;;;;;;;7.10;5.20;;;14.70;58.20;;;;;;5083993;28;20468;-81
2022/11/27 06:44:29;;;;;;;7.50;5.40;;;14.70;58.20;;;;;;5084601;28;20476;-82
2022/11/27 06:46:57;;;;;;;8.70;5.20;;;14.70;58.30;;;;;;5080927;28;20465;-82
2022/11/27 06:49:25;;;;;;;5.50;5.00;;;14.60;58.20;;;;;;5083629;28;20460;-83
2022/11/27 06:51:54;;;;;;;7.17;5.20;;;14.70;58.20;;;;;;5083056;28;20457;-83
2022/11/27 06:54:22;;;;;;;8.00;5.20;;;14.60;58.10;;;;;;5084167;28;20461;-81
2022/11/27 06:56:50;;;;;;;7.47;5.23;;;14.60;58.10;;;;;;5079814;28;20476;-83
2022/11/27 06:59:19;;;;;;;8.30;5.37;;;14.60;58.20;;;;;;5091746;28;20452;-83
2022/11/27 07:01:47;;;;;;;8.30;5.57;;;14.60;58.30;;;;;;5089801;28;20475;-82
2022/11/27 07:04:15;;;;;;;8.80;5.40;;;14.60;58.20;;;;;;5082453;28;20449;-81
2022/11/27 07:06:44;;;;;;;6.33;5.07;;;14.60;58.10;;;;;;5082476;28;20475;-82
2022/11/27 07:09:12;;;;;;;7.10;5.63;;;14.60;58.20;;;;;;5084168;28;20450;-83
2022/11/27 07:11:40;;;;;;;7.57;5.70;;;14.60;58.70;;;;;;5082825;28;20442;-82
2022/11/27 07:14:09;;;;;;;5.70;4.90;;;14.60;58.10;;;;;;5080831;28;20445;-81
2022/11/27 07:16:38;;;;;;;6.40;5.00;;;14.60;58.20;;;;;;5083255;28;20465;-82
2022/11/27 07:19:07;;;;;;;6.93;4.87;;;14.60;58.00;;;;;;5087952;28;20449;-82
2022/11/27 07:21:36;;;;;;;8.50;5.33;;;14.60;58.10;;;;;;5086427;28;20453;-82
2022/11/27 07:24:05;;;;;;;5.60;5.00;;;14.60;58.10;;;;;;5081846;28;20449;-84
2022/11/27 07:26:33;;;;;;;8.40;5.10;;;14.60;58.00;;;;;;5076281;28;20480;-84
2022/11/27 07:29:01;;;;;;;8.30;5.80;;;14.50;58.30;;;;;;5081462;28;20450;-83
2022/11/27 07:31:29;;;;;;;7.20;5.17;;;14.60;58.20;;;;;;5076537;28;20457;-84
2022/11/27 07:33:59;;;;;;;5.80;5.23;;;14.70;58.20;;;;;;5081672;28;20449;-84
2022/11/27 07:36:28;;;;;;;7.37;4.90;;;14.60;58.10;;;;;;5080810;28;20481;-84
2022/11/27 07:38:57;;;;;;;7.07;4.87;;;14.60;58.10;;;;;;5079262;28;20444;-84
2022/11/27 07:41:25;;;;;;;6.03;5.17;;;14.70;58.10;;;;;;5083892;28;20448;-84
2022/11/27 07:44:00;;;;;;;7.10;4.97;;;14.70;58.10;;;;;;5082286;28;20964;-84
2022/11/27 07:46:29;;;;;;;5.80;4.80;;;14.70;58.20;;;;;;5081216;28;20488;-83
2022/11/27 07:49:00;;;;;;;7.90;4.87;;;14.70;58.00;;;;;;5074487;28;20457;-83
2022/11/27 07:51:28;;;;;;;6.00;5.13;;;14.70;58.20;;;;;;5077375;28;20500;-83
2022/11/27 07:53:56;;;;;;;6.87;5.17;;;14.70;58.10;;;;;;5084919;28;20454;-83
2022/11/27 07:56:24;;;;;;;5.67;5.10;;;14.60;58.10;;;;;;5084651;28;20469;-84
2022/11/27 07:58:52;;;;;;;5.70;4.60;;;14.70;58.30;;;;;;5079905;28;20453;-84
2022/11/27 08:01:21;;;;;;;4.90;4.40;;;14.70;58.00;;;;;;5082349;28;20456;-84
2022/11/27 08:03:49;;;;;;;7.83;5.20;;;14.70;58.10;;;;;;5082874;28;20469;-82
2022/11/27 08:06:20;;;;;;;5.70;4.77;;;14.70;58.10;;;;;;5083448;28;20476;-83
2022/11/27 08:08:48;;;;;;;6.73;5.00;;;14.80;58.20;;;;;;5080851;28;20445;-83
2022/11/27 08:11:17;;;;;;;5.57;4.77;;;14.80;58.10;;;;;;5083066;28;20451;-83
2022/11/27 08:13:45;;;;;;;6.87;4.87;;;14.80;58.20;;;;;;5085676;28;20452;-84
2022/11/27 08:16:14;;;;;;;7.17;4.63;;;14.90;58.20;;;;;;5087726;28;20479;-83
2022/11/27 08:18:42;;;;;;;6.70;4.93;;;14.90;58.10;;;;;;5080376;28;20444;-84
2022/11/27 08:21:10;;;;;;;6.17;4.47;;;15.00;58.10;;;;;;5082389;28;20460;-83
2022/11/27 08:23:39;;;;;;;5.37;4.87;;;15.00;58.10;;;;;;5081285;28;20475;-84
2022/11/27 08:26:08;;;;;;;5.67;4.60;;;15.10;58.10;;;;;;5079516;28;20474;-83
2022/11/27 08:28:36;;;;;;;4.80;4.40;;;15.10;58.20;;;;;;5078322;28;20464;-84
2022/11/27 08:31:08;;;;;;;5.23;4.70;;;15.20;58.30;;;;;;5077251;28;20461;-84
2022/11/27 08:33:36;;;;;;;5.57;4.90;;;15.30;58.20;;;;;;5076790;28;20450;-83
2022/11/27 08:36:05;;;;;;;6.30;4.53;;;15.40;58.60;;;;;;5092327;28;20470;-84
2022/11/27 08:38:38;;;;;;;9.07;4.80;;;15.50;58.70;;;;;;5084039;28;20458;-84
2022/11/27 08:41:07;;;;;;;6.03;4.80;;;15.50;58.80;;;;;;5080100;28;20456;-83
2022/11/27 08:43:36;;;;;;;5.33;4.70;;;15.60;59.00;;;;;;5077191;28;20480;-83
2022/11/27 08:46:04;;;;;;;5.27;4.77;;;15.70;59.00;;;;;;5081602;28;20479;-82
2022/11/27 08:48:32;;;;;;;5.07;4.50;;;15.80;59.00;;;;;;5083312;28;20501;-82
2022/11/27 08:51:05;;;;;;;5.23;4.53;;;15.90;59.20;;;;;;5091144;28;20513;-82
2022/11/27 08:53:34;;;;;;;6.40;5.23;;;16.00;59.70;;;;;;5089888;28;20445;-82
2022/11/27 08:56:07;;;;;;;8.50;4.80;;;15.90;59.00;;;;;;5084631;28;20480;-81
2022/11/27 08:58:36;;;;;;;6.83;5.13;;;15.90;59.20;;;;;;5090159;28;20449;-82
2022/11/27 09:01:08;;;;;;;4.97;4.50;;;15.90;59.20;;;;;;5087753;28;20425;-82
2022/11/27 09:03:36;;;;;;;7.37;5.20;;;15.90;59.10;;;;;;5090212;28;20495;-82
2022/11/27 09:06:07;;;;;;;6.13;5.20;;;15.90;59.20;;;;;;5085542;28;20476;-82
2022/11/27 09:08:35;;;;;;;6.97;4.53;;;15.90;59.50;;;;;;5088641;28;20528;-82
2022/11/27 09:11:04;;;;;;;5.30;4.80;;;15.90;59.50;;;;;;5086799;28;20468;-82
2022/11/27 09:13:35;;;;;;;5.00;4.50;;;15.90;59.50;;;;;;5081539;28;20451;-82
2022/11/27 09:16:03;;;;;;;5.63;4.67;;;15.90;59.50;;;;;;5089916;28;20473;-82
2022/11/27 09:18:32;;;;;;;5.53;4.73;;;15.90;59.70;;;;;;5085878;28;20465;-83
2022/11/27 09:21:01;;;;;;;5.40;4.90;;;15.90;59.60;;;;;;5089763;28;20460;-81
2022/11/27 09:23:28;;;;;;;6.83;4.50;;;15.90;59.70;;;;;;5081706;28;20469;-83
2022/11/27 09:25:58;;;;;;;5.70;4.60;;;15.90;59.70;;;;;;5077020;28;20471;-82
2022/11/27 09:28:26;;;;;;;5.50;4.37;;;15.90;59.80;;;;;;5082644;28;20465;-82
2022/11/27 09:31:01;;;;;;;5.50;4.63;;;15.90;59.60;;;;;;5078849;28;20454;-82
2022/11/27 09:33:29;;;;;;;7.37;4.73;;;15.90;59.70;;;;;;5078174;28;20452;-82
2022/11/27 09:35:58;;;;;;;5.93;4.70;;;15.90;59.60;;;;;;5078614;28;20469;-81
2022/11/27 09:38:26;;;;;;;8.87;6.20;;;15.90;59.70;;;;;;5082730;28;20457;-81
2022/11/27 09:40:58;;;;;;;6.90;4.67;;;15.90;59.60;;;;;;5080425;28;20458;-82
2022/11/27 09:43:31;;;;;;;5.30;4.70;;;16.00;59.60;;;;;;5080858;28;20465;-82
2022/11/27 09:46:07;;;;;;;5.37;4.83;;;16.00;59.80;;;;;;5079162;28;20471;-82
2022/11/27 09:48:38;;;;;;;5.80;4.23;;;16.00;59.70;;;;;;5071960;28;20449;-83
2022/11/27 09:51:09;;;;;;;6.00;5.20;;;16.00;59.70;;;;;;5078743;28;20465;-82
2022/11/27 09:53:40;;;;;;;6.67;4.80;;;15.90;59.60;;;;;;5077731;28;20450;-82
2022/11/27 09:56:09;;;;;;;6.50;5.07;;;16.00;59.90;;;;;;5077016;28;20469;-81
2022/11/27 09:58:38;;;;;;;5.43;4.80;;;16.00;59.70;;;;;;5079804;28;20539;-82
2022/11/27 10:01:11;;;;;;;5.13;4.63;;;16.00;59.90;;;;;;5079653;28;20515;-82
2022/11/27 10:03:40;;;;;;;7.90;4.87;;;16.00;59.80;;;;;;5080784;28;20469;-82
2022/11/27 10:06:19;;;;;;;6.77;5.47;;;16.00;59.80;;;;;;5077786;28;20465;-82
2022/11/27 10:08:50;;;;;;;7.50;5.60;;;16.00;59.80;;;;;;5072290;28;20451;-83
2022/11/27 10:11:23;;;;;;;5.80;4.90;;;16.00;59.90;;;;;;5079055;28;20461;-82
2022/11/27 10:13:58;;;;;;;6.10;5.23;;;16.00;59.80;;;;;;5080217;28;20452;-83
2022/11/27 10:16:32;;;;;;;5.90;5.00;;;16.00;59.80;;;;;;5076444;28;20468;-82
2022/11/27 10:19:05;;;;;;;6.77;5.50;;;16.00;59.90;;;;;;5075297;28;20532;-81
2022/11/27 10:21:37;;;;;;;5.90;5.30;;;16.00;59.90;;;;;;5075809;28;20457;-82
2022/11/27 10:24:07;;;;;;;5.90;5.30;;;16.00;60.00;;;;;;5074326;28;20473;-82
2022/11/27 10:26:38;;;;;;;5.33;4.83;;;16.00;59.90;;;;;;5070287;28;20471;-82
2022/11/27 10:29:12;;;;;;;7.60;5.37;;;16.00;59.80;;;;;;5079483;28;20458;-83
2022/11/27 10:31:45;;;;;;;6.93;4.80;;;16.00;59.80;;;;;;5078696;28;20461;-82
2022/11/27 10:34:21;;;;;;;6.90;5.20;;;16.00;60.00;;;;;;5079007;28;20446;-82
2022/11/27 10:36:49;;;;;;;5.87;4.77;;;16.00;60.00;;;;;;5073436;28;20461;-82
2022/11/27 10:39:21;;;;;;;6.40;5.17;;;16.00;60.00;;;;;;5077409;28;20453;-82
2022/11/27 10:41:51;;;;;;;6.27;4.77;;;16.10;60.20;;;;;;5081069;28;20449;-83
2022/11/27 10:44:26;;;;;;;6.17;5.17;;;16.10;60.70;;;;;;5078348;28;20476;-82
2022/11/27 10:46:58;;;;;;;6.37;4.77;;;16.10;60.00;;;;;;5074475;28;20555;-82
2022/11/27 10:49:26;;;;;;;6.93;5.10;;;16.10;60.00;;;;;;5081760;28;20468;-82
2022/11/27 10:51:54;;;;;;;7.13;5.60;;;16.10;60.00;;;;;;5077110;28;20468;-82
2022/11/27 10:54:26;;;;;;;7.33;5.40;;;16.10;59.90;;;;;;5081710;28;20453;-83
2022/11/27 10:57:05;;;;;;;6.97;5.03;;;16.20;60.00;;;;;;5076707;28;20473;-82
2022/11/27 10:59:35;;;;;;;4.90;4.40;;;16.20;59.90;;;;;;5077156;28;20452;-83
2022/11/27 11:02:06;;;;;;;7.70;5.60;;;16.20;59.90;;;;;;5077497;28;20453;-82
2022/11/27 11:04:35;;;;;;;7.73;5.37;;;16.10;59.90;;;;;;5084259;28;20465;-82
2022/11/27 11:07:21;;;;;;;7.67;5.40;;;16.10;60.00;;;;;;5078375;28;20493;-82
2022/11/27 11:09:50;;;;;;;5.60;4.90;;;16.10;59.90;;;;;;5078100;28;20463;-83
2022/11/27 11:12:19;;;;;;;6.73;5.50;;;16.10;60.00;;;;;;5080384;28;20501;-82
2022/11/27 11:14:51;;;;;;;7.80;5.67;;;16.10;60.00;;;;;;5073440;28;20446;-81
2022/11/27 11:17:24;;;;;;;5.50;5.00;;;16.10;59.90;;;;;;5083317;28;20595;-82
2022/11/27 11:19:53;;;;;;;7.03;5.10;;;16.10;60.20;;;;;;5076893;28;20508;-82
2022/11/27 11:22:21;;;;;;;8.33;4.70;;;16.10;60.00;;;;;;5080565;28;20458;-82
2022/11/27 11:24:51;;;;;;;6.37;4.80;;;16.10;60.30;;;;;;5082834;28;20530;-83
2022/11/27 11:27:21;;;;;;;6.87;5.50;;;16.10;60.30;;;;;;5079117;28;20482;-82
2022/11/27 11:29:49;;;;;;;7.37;5.10;;;16.10;60.00;;;;;;5085763;28;20464;-83
2022/11/27 11:32:22;;;;;;;7.17;5.50;;;16.10;60.10;;;;;;5079588;28;20445;-82
2022/11/27 11:34:54;;;;;;;7.50;5.20;;;16.10;60.30;;;;;;5080232;28;20450;-81
2022/11/27 11:37:28;;;;;;;5.77;4.73;;;16.20;60.30;;;;;;5083302;28;20473;-82
2022/11/27 11:39:58;;;;;;;8.93;5.07;;;16.20;60.10;;;;;;5081826;28;20448;-82
2022/11/27 11:42:27;;;;;;;7.13;5.40;;;16.20;60.00;;;;;;5097863;28;20453;-82
2022/11/27 11:45:00;;;;;;;8.23;5.17;;;16.20;60.20;;;;;;5083984;28;20537;-82
2022/11/27 11:47:28;;;;;;;7.70;5.50;;;16.20;60.20;;;;;;5084962;28;20580;-82
2022/11/27 11:49:58;;;;;;;5.70;4.93;;;16.20;60.10;;;;;;5084265;28;20469;-82
2022/11/27 11:52:37;;;;;;;11.73;5.87;;;16.20;60.20;;;;;;5083747;28;20463;-81
2022/11/27 11:55:10;;;;;;;6.10;5.30;;;16.20;60.00;;;;;;5080027;28;20473;-82
2022/11/27 11:57:58;;;;;;;6.10;5.17;;;16.20;60.20;;;;;;5081243;28;21032;-81
2022/11/27 12:00:30;;;;;;;6.90;5.30;;;16.20;60.20;;;;;;5080205;28;20464;-83
2022/11/27 12:03:26;;;;;;;6.07;4.70;;;16.20;60.10;;;;;;5077540;28;21017;-83
2022/11/27 12:06:04;;;;;;;6.97;4.97;;;16.20;60.20;;;;;;5073249;28;20473;-82
2022/11/27 12:08:46;;;;;;;5.60;5.00;;;16.20;60.20;;;;;;5079379;28;20445;-83
2022/11/27 12:11:15;;;;;;;10.97;5.10;;;16.20;59.90;;;;;;5079103;28;20463;-83
2022/11/27 12:13:54;;;;;;;6.97;5.10;;;16.20;60.30;;;;;;5071108;28;20442;-83
2022/11/27 12:16:26;;;;;;;6.33;5.20;;;16.20;60.30;;;;;;5070897;28;20488;-83
2022/11/27 12:19:03;;;;;;;7.03;5.57;;;16.20;60.30;;;;;;5077439;28;20518;-83
2022/11/27 12:21:38;;;;;;;6.00;5.40;;;16.20;60.20;;;;;;5076524;28;20456;-83
2022/11/27 12:24:14;;;;;;;6.67;5.03;;;16.20;60.40;;;;;;5076777;28;20453;-81
2022/11/27 12:26:49;;;;;;;6.40;5.20;;;16.20;60.40;;;;;;5079381;28;20473;-83
2022/11/27 12:29:29;;;;;;;7.23;5.20;;;16.10;60.30;;;;;;5079879;28;20453;-84
2022/11/27 12:32:20;;;;;;;6.83;5.17;;;16.20;60.60;;;;;;5076833;28;20448;-83
2022/11/27 12:34:55;;;;;;;5.90;5.10;;;16.20;60.40;;;;;;5077433;28;20433;-82
2022/11/27 12:37:31;;;;;;;6.37;4.90;;;16.20;60.40;;;;;;5081970;28;20480;-83
2022/11/27 12:40:20;;;;;;;6.80;4.77;;;16.20;60.60;;;;;;5077375;28;20444;-84
2022/11/27 12:42:50;;;;;;;6.20;5.57;;;16.20;60.40;;;;;;5080950;28;20449;-83
2022/11/27 12:45:19;;;;;;;5.10;4.50;;;16.20;60.50;;;;;;5081878;28;20470;-82
2022/11/27 12:47:49;;;;;;;5.20;4.73;;;16.20;60.50;;;;;;5097372;28;20496;-84
2022/11/27 12:50:22;;;;;;;4.83;4.43;;;16.20;60.60;;;;;;5084431;28;20457;-83
2022/11/27 12:52:54;;;;;;;11.80;5.10;;;16.20;60.40;;;;;;5077426;28;20462;-85
2022/11/27 12:55:25;;;;;;;5.30;4.80;;;16.20;60.60;;;;;;5087806;28;20446;-83
2022/11/27 12:57:55;;;;;;;7.03;5.07;;;16.10;60.40;;;;;;5078919;28;20449;-82